This is the latest recevied weather packets stored in our database for station/object LROP. If no packets are shown the sender has not sent any weather packets the latest 10 day(s).
| Time | Temp. | Humidity | Pressure | Rain* | Wind** | Luminosity | Snow |
|---|---|---|---|---|---|---|---|
| 1777844889 | 6.11° C | 81% | 1019 hPa | - | - | - | - |
| 1777843982 | 6.11° C | 81% | 1019 hPa | - | - | - | - |
| 1777843082 | 7.22° C | 76% | 1019 hPa | - | - | - | - |
| 1777842182 | 7.22° C | 76% | 1019 hPa | - | - | - | - |
| 1777841289 | 7.22° C | 76% | 1019 hPa | - | - | - | - |
| 1777840455 | 7.22° C | 76% | 1019 hPa | - | - | - | - |
| 1777839482 | 7.78° C | 66% | 1019 hPa | - | - | - | - |
| 1777838591 | 7.78° C | 66% | 1019 hPa | - | - | - | - |
| 1777837707 | 8.89° C | 62% | 1020 hPa | - | - | - | - |
| 1777836856 | 8.89° C | 62% | 1020 hPa | - | - | - | - |
| 1777835882 | 10° C | 50% | 1019 hPa | - | - | - | - |
| 1777834982 | 10° C | 50% | 1019 hPa | - | - | - | - |
| 1777834155 | 11.11° C | 50% | 1019 hPa | - | - | - | - |
| 1777833182 | 11.11° C | 50% | 1019 hPa | - | - | - | - |
| 1777832282 | 11.11° C | 47% | 1019 hPa | - | - | - | - |
| 1777831382 | 11.11° C | 47% | 1019 hPa | - | - | - | - |
| 1777830502 | 11.11° C | 50% | 1019 hPa | - | - | - | - |
| 1777829607 | 11.11° C | 50% | 1019 hPa | - | - | - | - |
| 1777828682 | 12.78° C | 47% | 1019 hPa | - | - | - | - |
| 1777827783 | 12.78° C | 47% | 1019 hPa | - | - | - | - |
| 1777826882 | 13.89° C | 41% | 1019 hPa | - | - | - | - |
| 1777825981 | 13.89° C | 41% | 1019 hPa | - | - | - | - |
| 1777825082 | 15° C | 34% | 1019 hPa | - | - | - | - |
| 1777824202 | 15° C | 34% | 1019 hPa | - | - | - | - |
| 1777823324 | 16.11° C | 34% | 1019 hPa | - | - | - | - |
* Rain since midnight (hover to see other rain measurements)
** Current wind speed in m/s (hover to see current wind gust speed)